createdAt,value
2019-04-19T00:00:34.807Z,74.84
2019-04-19T00:01:44.170Z,74.37
2019-04-19T00:02:38.136Z,74.61
2019-04-19T00:03:36.910Z,74.74
2019-04-19T00:04:33.708Z,74.90
2019-04-19T00:05:35.841Z,75.37
2019-04-19T00:06:36.459Z,74.90
2019-04-19T00:07:33.888Z,75.09
2019-04-19T00:08:49.498Z,74.61
2019-04-19T00:09:43.704Z,75.09
2019-04-19T00:10:44.927Z,74.80
2019-04-19T00:11:42.209Z,74.74
2019-04-19T00:12:42.528Z,74.42
2019-04-19T00:13:34.665Z,75.28
2019-04-19T00:14:34.201Z,74.99
2019-04-19T00:15:35.737Z,75.28
2019-04-19T00:16:34.355Z,75.18
2019-04-19T00:17:35.731Z,75.09
2019-04-19T00:18:37.848Z,74.99
2019-04-19T00:19:54.197Z,75.28
2019-04-19T00:20:59.091Z,74.71
2019-04-19T00:22:01.803Z,74.71
2019-04-19T00:22:48.227Z,74.71
2019-04-19T00:23:40.001Z,74.80
2019-04-19T00:24:35.444Z,74.61
2019-04-19T00:25:34.693Z,74.61
2019-04-19T00:26:35.879Z,74.61
2019-04-19T00:27:41.409Z,74.71
2019-04-19T00:28:42.259Z,74.80
2019-04-19T00:29:44.572Z,74.71
2019-04-19T00:30:45.481Z,74.61
2019-04-19T00:31:46.244Z,74.52
2019-04-19T00:32:48.077Z,75.09
2019-04-19T00:33:41.717Z,75.18
2019-04-19T00:34:35.714Z,75.18
2019-04-19T00:35:35.168Z,74.71
2019-04-19T00:36:36.225Z,74.71
2019-04-19T00:37:36.463Z,75.09
2019-04-19T00:38:42.734Z,74.71
2019-04-19T00:39:52.052Z,74.99
2019-04-19T00:40:45.988Z,75.47
2019-04-19T00:41:56.989Z,75.28
2019-04-19T00:42:48.381Z,76.14
2019-04-19T00:43:51.035Z,75.37
2019-04-19T00:44:56.739Z,74.90
2019-04-19T00:45:49.499Z,76.04
2019-04-19T00:46:59.877Z,75.66
2019-04-19T00:47:51.452Z,74.99
2019-04-19T00:48:52.535Z,75.28
2019-04-19T00:49:51.287Z,76.04
2019-04-19T00:50:54.055Z,75.47
2019-04-19T00:51:50.239Z,76.14
2019-04-19T00:52:55.830Z,75.85
2019-04-19T00:53:43.872Z,76.04
2019-04-19T00:54:49.241Z,76.33
2019-04-19T00:55:48.566Z,75.47
2019-04-19T00:56:47.006Z,75.47
2019-04-19T00:57:42.047Z,76.04
2019-04-19T00:58:38.687Z,75.47
2019-04-19T00:59:41.991Z,75.66
2019-04-19T01:00:38.629Z,75.76
2019-04-19T01:01:37.418Z,75.66
2019-04-19T01:02:42.019Z,75.57
2019-04-19T01:03:40.996Z,74.99
2019-04-19T01:04:38.024Z,74.99
2019-04-19T01:05:46.406Z,75.09
2019-04-19T01:06:45.835Z,74.52
2019-04-19T01:07:39.123Z,74.80
2019-04-19T01:08:49.068Z,75.57
2019-04-19T01:09:46.253Z,75.76
2019-04-19T01:10:47.049Z,75.76
2019-04-19T01:11:55.645Z,74.90
2019-04-19T01:12:52.656Z,75.28
2019-04-19T01:13:54.165Z,75.66
2019-04-19T01:14:45.960Z,76.14
2019-04-19T01:15:53.121Z,75.81
2019-04-19T01:16:51.617Z,75.62
2019-04-19T01:17:54.134Z,76.01
2019-04-19T01:18:48.391Z,77.06
2019-04-19T01:19:38.930Z,77.91
2019-04-19T01:20:37.420Z,77.53
2019-04-19T01:21:38.450Z,77.25
2019-04-19T01:22:37.778Z,76.77
2019-04-19T01:23:42.341Z,76.77
2019-04-19T01:24:42.915Z,76.86
2019-04-19T01:25:37.563Z,76.86
2019-04-19T01:26:45.942Z,76.77
2019-04-19T01:27:39.119Z,76.39
2019-04-19T01:28:38.815Z,76.67
2019-04-19T01:29:43.659Z,77.34
2019-04-19T01:30:41.751Z,77.44
2019-04-19T01:31:37.821Z,76.96
2019-04-19T01:32:44.369Z,77.72
2019-04-19T01:33:40.918Z,76.29
2019-04-19T01:34:37.962Z,76.96
2019-04-19T01:35:43.470Z,75.53
2019-04-19T01:36:41.660Z,76.01
2019-04-19T01:37:39.041Z,76.10
2019-04-19T01:38:44.767Z,75.15
2019-04-19T01:39:56.812Z,75.81
2019-04-19T01:41:00.526Z,75.43
2019-04-19T01:41:53.789Z,76.57
2019-04-19T01:42:53.960Z,76.48
2019-04-19T01:43:54.826Z,76.39
2019-04-19T01:44:53.393Z,76.86
2019-04-19T01:45:56.771Z,76.29
2019-04-19T01:46:53.513Z,76.57
2019-04-19T01:47:54.307Z,75.91
2019-04-19T01:48:52.286Z,76.57
2019-04-19T01:49:51.531Z,76.48
2019-04-19T01:50:59.017Z,75.43
2019-04-19T01:51:51.726Z,76.39
2019-04-19T01:52:58.120Z,76.01
2019-04-19T01:53:56.631Z,76.39
2019-04-19T01:54:51.874Z,77.53
2019-04-19T01:55:41.729Z,77.34
2019-04-19T01:56:45.592Z,76.29
2019-04-19T01:57:39.045Z,76.86
2019-04-19T01:58:44.569Z,76.01
2019-04-19T01:59:44.872Z,76.20
2019-04-19T02:00:44.883Z,75.53
2019-04-19T02:01:39.608Z,74.86
2019-04-19T02:02:48.465Z,74.86
2019-04-19T02:03:44.982Z,76.48
2019-04-19T02:04:39.621Z,75.91
2019-04-19T02:05:46.003Z,75.05
2019-04-19T02:06:43.007Z,75.05
2019-04-19T02:07:40.424Z,76.29
2019-04-19T02:08:45.935Z,75.53
2019-04-19T02:09:54.198Z,74.96
2019-04-19T02:10:50.603Z,76.20
2019-04-19T02:11:49.171Z,76.29
2019-04-19T02:12:49.824Z,76.57
2019-04-19T02:13:51.205Z,76.10
2019-04-19T02:14:48.566Z,76.29
2019-04-19T02:15:45.232Z,76.77
2019-04-19T02:16:40.942Z,76.57
2019-04-19T02:17:43.738Z,76.10
2019-04-19T02:18:41.047Z,76.57
2019-04-19T02:19:48.074Z,77.62
2019-04-19T02:20:44.520Z,79.06
2019-04-19T02:21:42.382Z,79.88
2019-04-19T02:22:41.452Z,80.26
2019-04-19T02:23:44.475Z,79.68
2019-04-19T02:24:45.804Z,79.78
2019-04-19T02:25:41.400Z,80.54
2019-04-19T02:26:46.441Z,81.78
2019-04-19T02:27:44.131Z,82.07
2019-04-19T02:28:42.538Z,82.54
2019-04-19T02:29:49.808Z,81.68
2019-04-19T02:30:53.589Z,81.97
2019-04-19T02:32:07.388Z,81.40
2019-04-19T02:33:02.333Z,81.40
2019-04-19T02:34:16.253Z,80.98
2019-04-19T02:35:09.943Z,80.26
2019-04-19T02:36:08.751Z,81.65
2019-04-19T02:37:11.488Z,80.98
2019-04-19T02:38:07.173Z,82.50
2019-04-19T02:39:12.218Z,81.26
2019-04-19T02:40:21.671Z,80.98
2019-04-19T02:41:10.795Z,82.21
2019-04-19T02:42:21.208Z,82.21
2019-04-19T02:43:10.650Z,83.26
2019-04-19T02:47:18.076Z,81.07
2019-04-19T02:48:13.274Z,81.17
2019-04-19T02:49:28.371Z,80.98
2019-04-19T02:52:10.049Z,82.03
2019-04-19T02:54:10.371Z,83.07
2019-04-19T02:56:11.169Z,83.65
2019-04-19T02:57:13.611Z,83.55
2019-04-19T02:58:06.496Z,83.84
2019-04-19T02:59:13.880Z,84.60
2019-04-19T03:00:13.700Z,84.17
2019-04-19T03:01:20.813Z,85.22
2019-04-19T03:02:16.884Z,85.32
2019-04-19T03:03:07.990Z,84.65
2019-04-19T03:04:26.319Z,84.75
2019-04-19T03:05:22.931Z,85.13
2019-04-19T03:06:02.615Z,84.65
2019-04-19T03:06:50.544Z,85.41
2019-04-19T03:07:42.695Z,85.51
2019-04-19T03:08:42.411Z,85.51
2019-04-19T03:09:45.009Z,86.84
2019-04-19T03:10:58.186Z,85.99
2019-04-19T03:11:56.406Z,86.46
2019-04-19T03:13:00.506Z,86.65
2019-04-19T03:13:57.206Z,85.89
2019-04-19T03:14:57.567Z,85.89
2019-04-19T03:15:57.340Z,85.89
2019-04-19T03:17:05.590Z,85.80
2019-04-19T03:18:03.614Z,86.18
2019-04-19T03:18:59.678Z,85.99
2019-04-19T03:20:02.225Z,85.60
2019-04-19T03:20:56.485Z,85.80
2019-04-19T03:21:56.048Z,85.70
2019-04-19T03:23:00.780Z,85.80
2019-04-19T03:23:59.905Z,85.60
2019-04-19T03:25:03.261Z,85.89
2019-04-19T03:25:54.446Z,85.41
2019-04-19T03:26:56.157Z,85.41
2019-04-19T03:27:55.866Z,85.89
2019-04-19T03:28:50.299Z,85.70
2019-04-19T03:29:47.424Z,85.70
2019-04-19T03:31:13.986Z,86.08
2019-04-19T03:33:09.357Z,87.03
2019-04-19T03:34:31.431Z,86.18
2019-04-19T03:36:15.057Z,86.27
2019-04-19T03:36:55.016Z,86.55
2019-04-19T03:38:02.134Z,85.99
2019-04-19T03:39:04.154Z,85.80
2019-04-19T03:40:12.833Z,85.51
2019-04-19T03:41:03.537Z,84.65
2019-04-19T03:42:05.216Z,84.27
2019-04-19T03:43:04.322Z,84.17
2019-04-19T03:44:03.497Z,85.51
2019-04-19T03:45:04.159Z,86.75
2019-04-19T03:46:07.833Z,88.37
2019-04-19T03:47:06.288Z,88.56
2019-04-19T03:48:05.141Z,87.98
2019-04-19T03:48:56.117Z,88.27
2019-04-19T03:50:05.892Z,87.89
2019-04-19T03:51:04.928Z,88.46
2019-04-19T03:52:08.571Z,86.27
2019-04-19T03:53:03.273Z,86.36
2019-04-19T03:54:00.137Z,86.36
2019-04-19T03:55:07.946Z,86.65
2019-04-19T03:56:06.324Z,86.42
2019-04-19T03:57:03.115Z,86.61
2019-04-19T03:57:54.079Z,86.80
2019-04-19T03:58:45.829Z,87.75
2019-04-19T03:59:45.750Z,87.94
2019-04-19T04:00:45.076Z,88.42
2019-04-19T04:01:50.764Z,88.32
2019-04-19T04:02:47.919Z,89.18
2019-04-19T04:03:46.683Z,89.18
2019-04-19T04:04:52.715Z,89.37
2019-04-19T04:05:48.363Z,89.27
2019-04-19T04:06:46.219Z,89.84
2019-04-19T04:07:53.788Z,89.42
2019-04-19T04:08:49.453Z,89.89
2019-04-19T04:09:49.738Z,89.89
2019-04-19T04:10:46.051Z,89.75
2019-04-19T04:11:56.493Z,89.94
2019-04-19T04:12:56.650Z,90.18
2019-04-19T04:14:02.998Z,90.47
2019-04-19T04:14:56.841Z,90.84
2019-04-19T04:15:57.065Z,90.47
2019-04-19T04:16:49.013Z,90.47
2019-04-19T04:17:45.689Z,92.36
2019-04-19T04:18:45.604Z,91.42
2019-04-19T04:19:46.306Z,91.22
2019-04-19T04:20:50.655Z,92.75
2019-04-19T04:21:49.490Z,93.04
2019-04-19T04:22:47.096Z,92.75
2019-04-19T04:23:56.680Z,92.75
2019-04-19T04:24:57.339Z,92.08
2019-04-19T04:25:54.276Z,93.13
2019-04-19T04:26:56.929Z,93.04
2019-04-19T04:27:56.432Z,93.04
2019-04-19T04:28:58.688Z,92.94
2019-04-19T04:30:00.272Z,92.46
2019-04-19T04:30:56.081Z,93.04
2019-04-19T04:31:58.077Z,93.70
2019-04-19T04:32:57.214Z,94.65
2019-04-19T04:33:59.378Z,94.56
2019-04-19T04:34:56.727Z,93.98
2019-04-19T04:36:04.031Z,93.60
2019-04-19T04:37:02.567Z,94.70
2019-04-19T04:37:58.102Z,95.36
2019-04-19T04:38:47.936Z,95.56
2019-04-19T04:39:47.214Z,96.12
2019-04-19T04:40:46.654Z,95.46
2019-04-19T04:41:48.428Z,96.41
2019-04-19T04:43:01.387Z,96.12
2019-04-19T04:44:06.042Z,96.03
2019-04-19T04:45:15.915Z,96.79
2019-04-19T04:46:15.409Z,95.84
2019-04-19T04:47:07.551Z,96.89
2019-04-19T04:47:59.884Z,96.41
2019-04-19T04:49:07.161Z,96.79
2019-04-19T04:49:59.329Z,96.03
2019-04-19T04:51:05.745Z,95.84
2019-04-19T04:51:58.903Z,96.79
2019-04-19T04:52:49.256Z,96.50
2019-04-19T04:53:47.201Z,96.50
2019-04-19T04:54:48.182Z,97.17
2019-04-19T04:55:52.534Z,97.27
2019-04-19T04:56:56.697Z,97.36
2019-04-19T04:57:52.552Z,97.55
2019-04-19T04:58:49.130Z,97.36
2019-04-19T04:59:50.752Z,98.12
2019-04-19T05:00:55.308Z,98.03
2019-04-19T05:01:54.508Z,97.93
2019-04-19T05:03:03.705Z,96.89
2019-04-19T05:04:02.120Z,97.17
2019-04-19T05:05:08.663Z,97.08
2019-04-19T05:06:06.192Z,97.36
2019-04-19T05:07:03.517Z,97.45
2019-04-19T05:08:12.995Z,97.27
2019-04-19T05:09:06.184Z,97.45
2019-04-19T05:10:08.558Z,97.45
2019-04-19T05:11:09.643Z,97.36
2019-04-19T05:12:15.208Z,97.45
2019-04-19T05:13:22.082Z,97.45
2019-04-19T05:14:06.015Z,97.45
2019-04-19T05:14:59.315Z,98.17
2019-04-19T05:16:06.812Z,98.79
2019-04-19T05:17:22.251Z,98.36
2019-04-19T05:18:13.766Z,98.36
2019-04-19T05:19:03.903Z,98.65
2019-04-19T05:20:11.774Z,98.93
2019-04-19T05:21:02.550Z,98.17
2019-04-19T05:22:08.555Z,98.83
2019-04-19T05:23:02.710Z,98.93
2019-04-19T05:24:10.484Z,99.22
2019-04-19T05:25:14.769Z,98.65
2019-04-19T05:26:21.375Z,98.65
2019-04-19T05:27:13.124Z,98.93
2019-04-19T05:28:09.525Z,97.88
2019-04-19T05:29:02.927Z,98.46
2019-04-19T05:29:51.665Z,98.74
2019-04-19T05:30:55.684Z,97.98
2019-04-19T05:31:53.276Z,98.13
2019-04-19T05:32:57.959Z,98.03
2019-04-19T05:34:12.397Z,98.41
2019-04-19T05:35:06.896Z,97.36
2019-04-19T05:36:12.728Z,98.32
2019-04-19T05:37:03.775Z,97.84
2019-04-19T05:38:02.824Z,97.36
2019-04-19T05:39:08.971Z,97.74
2019-04-19T05:40:12.213Z,96.89
2019-04-19T05:40:59.299Z,96.60
2019-04-19T05:42:03.940Z,96.98
2019-04-19T05:43:02.165Z,97.65
2019-04-19T05:44:19.901Z,98.27
2019-04-19T05:45:15.746Z,97.70
2019-04-19T05:46:17.940Z,96.89
2019-04-19T05:47:10.365Z,96.17
2019-04-19T05:47:59.401Z,94.74
2019-04-19T05:49:06.556Z,94.56
2019-04-19T05:50:07.555Z,94.84
2019-04-19T05:51:14.055Z,94.84
2019-04-19T05:52:07.953Z,95.03
2019-04-19T05:53:03.989Z,95.70
2019-04-19T05:53:53.720Z,95.41
2019-04-19T05:54:51.372Z,95.46
2019-04-19T05:55:50.017Z,95.22
2019-04-19T05:56:55.038Z,93.41
2019-04-19T05:58:05.730Z,93.93
2019-04-19T05:59:01.427Z,92.98
2019-04-19T05:59:59.526Z,93.74
2019-04-19T06:01:04.203Z,92.89
2019-04-19T06:02:05.042Z,93.74
2019-04-19T06:03:02.954Z,93.93
2019-04-19T06:04:07.462Z,94.03
2019-04-19T06:05:18.848Z,94.51
2019-04-19T06:06:14.429Z,94.51
2019-04-19T06:07:09.460Z,95.17
2019-04-19T06:08:01.716Z,95.36
2019-04-19T06:08:51.818Z,95.27
2019-04-19T06:09:51.782Z,95.36
2019-04-19T06:10:55.890Z,95.46
2019-04-19T06:11:51.396Z,95.03
2019-04-19T06:13:00.398Z,94.46
2019-04-19T06:14:12.666Z,94.74
2019-04-19T06:15:13.415Z,94.37
2019-04-19T06:16:12.622Z,93.51
2019-04-19T06:17:03.012Z,93.22
2019-04-19T06:18:09.590Z,93.79
2019-04-19T06:19:09.730Z,93.70
2019-04-19T06:20:11.149Z,94.56
2019-04-19T06:21:17.228Z,94.17
2019-04-19T06:22:04.642Z,94.08
2019-04-19T06:23:03.880Z,94.08
2019-04-19T06:24:12.208Z,92.84
2019-04-19T06:25:06.642Z,92.69
2019-04-19T06:26:46.257Z,93.08
2019-04-19T06:27:17.873Z,92.12
2019-04-19T06:28:36.937Z,92.03
2019-04-19T06:29:10.651Z,92.22
2019-04-19T06:30:14.878Z,90.79
2019-04-19T06:31:20.326Z,90.50
2019-04-19T06:32:15.857Z,91.27
2019-04-19T06:33:14.236Z,91.41
2019-04-19T06:34:08.909Z,91.50
2019-04-19T06:35:05.402Z,91.12
2019-04-19T06:35:58.245Z,90.45
2019-04-19T06:37:01.621Z,90.64
2019-04-19T06:37:52.420Z,89.88
2019-04-19T06:38:52.744Z,89.50
2019-04-19T06:40:00.349Z,89.02
2019-04-19T06:40:59.843Z,88.16
2019-04-19T06:42:00.078Z,88.68
2019-04-19T06:42:59.683Z,87.73
2019-04-19T06:44:05.105Z,87.44
2019-04-19T06:45:13.658Z,85.33
2019-04-19T06:46:07.160Z,82.26
2019-04-19T06:47:02.875Z,79.91
2019-04-19T06:47:58.932Z,77.26
2019-04-19T06:48:59.608Z,75.01
2019-04-19T06:49:54.577Z,73.90
2019-04-19T06:50:56.155Z,72.88
2019-04-19T06:52:01.435Z,71.44
2019-04-19T06:52:53.189Z,70.42
2019-04-19T06:53:58.902Z,70.03
2019-04-19T06:54:53.668Z,68.59
2019-04-19T06:56:04.448Z,69.01
2019-04-19T06:57:05.288Z,68.41
2019-04-19T06:58:02.954Z,67.45
2019-04-19T06:59:05.656Z,65.91
2019-04-19T07:00:08.481Z,65.72
2019-04-19T07:01:04.916Z,64.28
2019-04-19T07:01:56.354Z,64.40
2019-04-19T07:02:54.126Z,65.81
2019-04-19T07:03:53.749Z,65.43
2019-04-19T07:05:08.928Z,65.62
2019-04-19T07:06:09.055Z,65.75
2019-04-19T07:07:16.591Z,65.97
2019-04-19T07:08:38.760Z,64.50
2019-04-19T07:09:21.322Z,65.33
2019-04-19T07:10:17.093Z,65.75
2019-04-19T07:11:16.467Z,65.72
2019-04-19T07:12:11.787Z,66.20
2019-04-19T07:13:11.219Z,65.05
2019-04-19T07:14:04.836Z,63.73
2019-04-19T07:15:25.111Z,62.90
2019-04-19T07:16:19.180Z,62.51
2019-04-19T07:17:10.901Z,61.68
2019-04-19T07:18:11.507Z,61.77
2019-04-19T07:19:14.573Z,61.32
2019-04-19T07:20:07.949Z,60.94
2019-04-19T07:21:12.463Z,60.55
2019-04-19T07:22:07.955Z,60.24
2019-04-19T07:23:06.732Z,60.84
2019-04-19T07:24:20.560Z,60.10
2019-04-19T07:25:18.724Z,58.27
2019-04-19T07:26:15.556Z,57.79
2019-04-19T07:27:13.670Z,56.96
2019-04-19T07:28:04.881Z,59.50
2019-04-19T07:28:55.667Z,61.65
2019-04-19T07:29:58.535Z,60.91
2019-04-19T07:30:59.092Z,62.06
2019-04-19T07:31:55.709Z,63.99
2019-04-19T07:33:03.499Z,65.14
2019-04-19T07:34:07.433Z,65.94
2019-04-19T07:35:11.949Z,66.74
2019-04-19T07:36:12.019Z,67.55
2019-04-19T07:37:13.011Z,67.74
2019-04-19T07:38:25.208Z,67.83
2019-04-19T07:39:14.442Z,67.93
2019-04-19T07:40:20.244Z,66.97
2019-04-19T07:41:14.507Z,66.10
2019-04-19T07:42:17.114Z,66.61
2019-04-19T07:43:10.654Z,70.17
2019-04-19T07:44:07.016Z,71.95
2019-04-19T07:45:00.315Z,73.58
2019-04-19T07:46:13.959Z,73.43
2019-04-19T07:47:11.406Z,74.04
2019-04-19T07:48:02.298Z,72.06
2019-04-19T07:48:55.514Z,70.46
2019-04-19T07:50:04.951Z,70.59
2019-04-19T07:51:02.254Z,68.73
2019-04-19T07:52:06.078Z,68.25
2019-04-19T07:52:59.214Z,70.64
2019-04-19T07:53:57.229Z,72.56
2019-04-19T07:55:03.323Z,73.18
2019-04-19T07:56:07.874Z,73.11
2019-04-19T07:58:38.843Z,72.37
2019-04-19T07:59:19.747Z,73.74
2019-04-19T08:00:33.341Z,74.79
2019-04-19T08:01:24.665Z,76.54
2019-04-19T08:02:48.692Z,78.17
2019-04-19T08:04:34.508Z,77.92
2019-04-19T08:06:33.207Z,76.00
2019-04-19T08:07:27.535Z,76.90
2019-04-19T08:08:34.130Z,77.23
2019-04-19T08:10:18.211Z,73.45
2019-04-19T08:12:18.489Z,75.31
2019-04-19T08:13:35.455Z,73.70
2019-04-19T08:14:27.247Z,77.08
2019-04-19T08:15:19.860Z,79.08
2019-04-19T08:16:27.831Z,80.18
2019-04-19T08:18:53.987Z,78.53
2019-04-19T08:28:09.498Z,71.06
2019-04-19T08:29:13.201Z,71.92
2019-04-19T08:30:03.338Z,74.66
2019-04-19T08:31:02.193Z,77.06
2019-04-19T08:31:58.018Z,76.48
2019-04-19T08:32:57.798Z,77.09
2019-04-19T08:33:57.905Z,76.14
2019-04-19T08:35:02.863Z,74.64
2019-04-19T08:36:00.874Z,74.51
2019-04-19T08:37:01.927Z,75.04
2019-04-19T08:38:04.747Z,74.82
2019-04-19T08:39:17.958Z,77.84
2019-04-19T08:40:18.218Z,78.45
2019-04-19T08:41:12.544Z,77.34
2019-04-19T08:42:18.935Z,75.89
2019-04-19T08:43:31.969Z,74.93
2019-04-19T08:44:14.220Z,75.15
2019-04-19T08:45:04.895Z,74.48
2019-04-19T08:45:58.719Z,72.28
2019-04-19T08:46:58.479Z,73.83
2019-04-19T08:48:07.095Z,75.23
2019-04-19T08:49:02.156Z,77.50
2019-04-19T08:50:02.805Z,77.59
2019-04-19T08:50:59.855Z,78.27
2019-04-19T08:52:01.146Z,78.55
2019-04-19T08:53:13.035Z,78.59
2019-04-19T08:54:25.779Z,77.73
2019-04-19T08:55:19.491Z,76.90
2019-04-19T08:56:12.294Z,77.38
2019-04-19T08:57:04.819Z,78.05
2019-04-19T08:58:06.348Z,76.42
2019-04-19T08:59:24.142Z,77.15
2019-04-19T09:00:30.673Z,77.21
2019-04-19T09:01:18.776Z,77.06
2019-04-19T09:02:17.908Z,79.88
2019-04-19T09:03:10.485Z,77.51
2019-04-19T09:04:20.030Z,75.54
2019-04-19T09:05:18.421Z,75.67
2019-04-19T09:06:56.582Z,72.41
2019-04-19T09:09:19.166Z,76.31
2019-04-19T09:11:16.826Z,71.16
2019-04-19T09:12:17.114Z,70.29
2019-04-19T09:13:28.120Z,69.68
2019-04-19T09:14:23.180Z,71.12
2019-04-19T09:15:18.243Z,70.51
2019-04-19T09:16:19.557Z,71.44
2019-04-19T09:17:26.586Z,73.61
2019-04-19T09:19:28.719Z,73.68
2019-04-19T09:20:19.441Z,74.58
2019-04-19T09:21:18.579Z,70.49
2019-04-19T09:22:20.821Z,68.66
2019-04-19T09:23:14.123Z,70.20
2019-04-19T09:24:08.523Z,69.24
2019-04-19T09:25:07.467Z,69.34
2019-04-19T09:26:21.076Z,68.63
2019-04-19T09:27:25.959Z,70.17
2019-04-19T09:28:30.799Z,69.53
2019-04-19T09:29:28.975Z,68.66
2019-04-19T09:30:21.879Z,68.21
2019-04-19T09:31:16.895Z,68.76
2019-04-19T09:32:08.440Z,67.90
2019-04-19T09:33:09.862Z,68.24
2019-04-19T09:34:08.215Z,68.53
2019-04-19T09:35:06.136Z,69.56
2019-04-19T09:36:07.001Z,69.68
2019-04-19T09:37:11.823Z,69.59
2019-04-19T09:38:10.414Z,67.99
2019-04-19T09:39:21.183Z,67.90
2019-04-19T09:40:07.131Z,67.76
2019-04-19T09:41:06.233Z,69.34
2019-04-19T09:42:12.827Z,70.14
2019-04-19T09:43:18.746Z,66.26
2019-04-19T09:44:09.458Z,66.86
2019-04-19T09:45:03.541Z,70.93
2019-04-19T09:46:02.076Z,69.91
2019-04-19T09:47:04.381Z,67.00
2019-04-19T09:48:01.647Z,67.63
2019-04-19T09:49:15.583Z,69.68
2019-04-19T09:50:13.661Z,71.25
2019-04-19T09:51:23.159Z,70.13
2019-04-19T09:52:27.879Z,69.26
2019-04-19T09:53:32.048Z,69.74
2019-04-19T09:54:19.153Z,70.70
2019-04-19T09:55:27.143Z,70.80
2019-04-19T09:56:24.844Z,68.59
2019-04-19T09:57:24.265Z,70.07
2019-04-19T09:58:21.990Z,68.15
2019-04-19T09:59:13.171Z,67.96
2019-04-19T10:00:10.281Z,70.49
2019-04-19T10:01:02.362Z,67.68
2019-04-19T10:02:05.184Z,65.56
2019-04-19T10:03:08.849Z,63.89
2019-04-19T10:04:04.578Z,66.52
2019-04-19T10:05:03.096Z,65.62
2019-04-19T10:06:02.671Z,64.28
2019-04-19T10:07:02.920Z,67.68
2019-04-19T10:08:03.877Z,66.81
2019-04-19T10:09:04.907Z,64.02
2019-04-19T10:10:07.574Z,65.72
2019-04-19T10:11:03.096Z,66.67
2019-04-19T10:12:03.895Z,66.49
2019-04-19T10:13:03.582Z,66.86
2019-04-19T10:14:04.295Z,66.71
2019-04-19T10:15:04.122Z,66.39
2019-04-19T10:16:04.033Z,67.63
2019-04-19T10:17:04.511Z,69.49
2019-04-19T10:18:03.223Z,68.66
2019-04-19T10:19:06.442Z,65.88
2019-04-19T10:20:04.573Z,64.25
2019-04-19T10:21:03.404Z,65.11
2019-04-19T10:22:04.519Z,66.13
2019-04-19T10:23:04.012Z,66.93
2019-04-19T10:24:07.952Z,66.07
2019-04-19T10:25:03.589Z,65.69
2019-04-19T10:26:08.686Z,66.97
2019-04-19T10:27:05.578Z,64.85
2019-04-19T10:28:03.757Z,64.28
2019-04-19T10:29:14.841Z,64.63
2019-04-19T10:30:04.163Z,65.01
2019-04-19T10:31:03.932Z,65.69
2019-04-19T10:32:04.550Z,65.40
2019-04-19T10:33:04.576Z,65.62
2019-04-19T10:34:05.898Z,65.33
2019-04-19T10:35:04.399Z,65.75
2019-04-19T10:36:04.409Z,64.69
2019-04-19T10:37:04.255Z,70.40
2019-04-19T10:38:04.292Z,63.38
2019-04-19T10:39:05.552Z,61.71
2019-04-19T10:40:05.775Z,64.22
2019-04-19T10:41:04.422Z,65.40
2019-04-19T10:42:04.553Z,63.18
2019-04-19T10:43:05.163Z,61.68
2019-04-19T10:44:13.214Z,63.57
2019-04-19T10:45:05.821Z,64.72
2019-04-19T10:46:04.848Z,64.50
2019-04-19T10:47:04.934Z,66.61
2019-04-19T10:48:04.832Z,66.67
2019-04-19T10:49:13.100Z,66.67
2019-04-19T10:50:16.836Z,67.47
2019-04-19T10:51:07.457Z,65.69
2019-04-19T10:52:05.030Z,65.88
2019-04-19T10:53:06.089Z,66.07
2019-04-19T10:54:06.399Z,64.92
2019-04-19T10:55:06.286Z,64.50
2019-04-19T10:56:05.223Z,66.64
2019-04-19T10:57:06.356Z,65.01
2019-04-19T10:58:05.425Z,65.14
2019-04-19T10:59:05.379Z,65.84
2019-04-19T11:00:05.424Z,64.34
2019-04-19T11:01:05.477Z,65.27
2019-04-19T11:02:06.359Z,66.52
2019-04-19T11:03:06.441Z,66.64
2019-04-19T11:04:06.713Z,66.26
2019-04-19T11:05:07.017Z,66.20
2019-04-19T11:06:05.748Z,65.94
2019-04-19T11:07:05.806Z,63.41
2019-04-19T11:08:05.876Z,64.22
2019-04-19T11:09:06.810Z,65.27
2019-04-19T11:10:07.386Z,65.14
2019-04-19T11:11:06.013Z,65.72
2019-04-19T11:12:06.133Z,65.56
2019-04-19T11:13:06.112Z,66.74
2019-04-19T11:14:06.175Z,66.88
2019-04-19T11:15:06.619Z,64.56
2019-04-19T11:16:06.795Z,63.54
2019-04-19T11:17:07.457Z,62.70
2019-04-19T11:18:07.594Z,62.00
2019-04-19T11:19:15.325Z,61.13
2019-04-19T11:20:21.290Z,60.14
2019-04-19T11:21:07.395Z,61.39
2019-04-19T11:22:07.695Z,62.13
2019-04-19T11:23:07.920Z,64.40
2019-04-19T11:24:07.459Z,66.30
2019-04-19T11:25:08.013Z,66.10
2019-04-19T11:26:07.163Z,65.78
2019-04-19T11:27:06.872Z,65.91
2019-04-19T11:28:07.116Z,68.51
2019-04-19T11:29:07.955Z,66.49
2019-04-19T11:30:07.018Z,66.71
2019-04-19T11:31:07.074Z,65.53
2019-04-19T11:32:07.950Z,67.29
2019-04-19T11:33:08.370Z,67.77
2019-04-19T11:34:07.307Z,64.31
2019-04-19T11:35:07.503Z,65.14
2019-04-19T11:36:07.808Z,65.62
2019-04-19T11:37:08.363Z,67.86
2019-04-19T11:38:07.482Z,68.48
2019-04-19T11:39:07.524Z,67.48
2019-04-19T11:40:08.879Z,65.88
2019-04-19T11:41:07.648Z,64.63
2019-04-19T11:42:07.669Z,62.32
2019-04-19T11:43:10.270Z,63.70
2019-04-19T11:44:14.127Z,61.94
2019-04-19T11:45:07.990Z,61.43
2019-04-19T11:46:07.901Z,63.38
2019-04-19T11:47:08.993Z,63.54
2019-04-19T11:48:08.659Z,64.18
2019-04-19T11:49:15.679Z,65.62
2019-04-19T11:50:09.320Z,66.07
2019-04-19T11:51:08.161Z,66.55
2019-04-19T11:52:10.665Z,63.89
2019-04-19T11:53:09.281Z,65.23
2019-04-19T11:54:08.743Z,65.81
2019-04-19T11:55:08.983Z,65.62
2019-04-19T11:56:08.727Z,64.69
2019-04-19T11:57:09.282Z,63.25
2019-04-19T11:58:08.707Z,62.41
2019-04-19T11:59:08.808Z,65.24
2019-04-19T12:00:09.470Z,62.29
2019-04-19T12:01:09.920Z,63.57
2019-04-19T12:02:08.745Z,61.80
2019-04-19T12:03:09.822Z,61.74
2019-04-19T12:04:10.058Z,63.31
2019-04-19T12:05:16.524Z,59.75
2019-04-19T12:06:08.976Z,59.52
2019-04-19T12:07:10.287Z,59.72
2019-04-19T12:08:09.112Z,61.77
2019-04-19T12:09:09.157Z,62.15
2019-04-19T12:10:10.286Z,61.07
2019-04-19T12:11:10.393Z,62.32
2019-04-19T12:12:09.490Z,61.83
2019-04-19T12:13:09.353Z,63.47
2019-04-19T12:14:10.102Z,61.35
2019-04-19T12:15:10.301Z,62.19
2019-04-19T12:16:10.730Z,61.93
2019-04-19T12:17:09.575Z,62.03
2019-04-19T12:18:10.366Z,60.80
2019-04-19T12:19:09.832Z,60.61
2019-04-19T12:20:11.212Z,59.75
2019-04-19T12:21:11.270Z,59.72
2019-04-19T12:22:09.859Z,61.55
2019-04-19T12:23:09.909Z,60.97
2019-04-19T12:24:10.843Z,59.69
2019-04-19T12:25:10.088Z,60.65
2019-04-19T12:26:11.489Z,60.81
2019-04-19T12:27:10.146Z,62.09
2019-04-19T12:28:10.194Z,65.30
2019-04-19T12:29:22.788Z,64.56
2019-04-19T12:30:11.420Z,63.15
2019-04-19T12:31:11.453Z,60.16
2019-04-19T12:32:11.478Z,57.92
2019-04-19T12:33:11.236Z,59.33
2019-04-19T12:34:11.662Z,58.56
2019-04-19T12:35:10.972Z,59.27
2019-04-19T12:36:10.928Z,59.20
2019-04-19T12:37:11.052Z,58.91
2019-04-19T12:38:10.770Z,57.49
2019-04-19T12:39:10.830Z,55.46
2019-04-19T12:40:10.942Z,55.49
2019-04-19T12:41:12.102Z,54.11
2019-04-19T12:42:11.266Z,56.43
2019-04-19T12:43:12.004Z,55.73
2019-04-19T12:44:11.142Z,57.29
2019-04-19T12:45:13.265Z,55.63
2019-04-19T12:46:11.230Z,56.35
2019-04-19T12:47:11.279Z,57.95
2019-04-19T12:48:11.856Z,58.63
2019-04-19T12:49:12.246Z,59.11
2019-04-19T12:50:13.058Z,58.31
2019-04-19T12:51:12.255Z,59.49
2019-04-19T12:52:12.382Z,59.20
2019-04-19T12:53:12.772Z,57.67
2019-04-19T12:54:12.113Z,60.75
2019-04-19T12:55:12.321Z,59.97
2019-04-19T12:56:11.863Z,59.44
2019-04-19T12:57:11.979Z,61.87
2019-04-19T12:58:12.228Z,60.04
2019-04-19T12:59:11.974Z,59.01
2019-04-19T13:00:12.098Z,59.20
2019-04-19T13:01:12.305Z,59.69
2019-04-19T13:02:12.151Z,57.09
2019-04-19T13:03:12.198Z,56.41
2019-04-19T13:04:12.873Z,58.15
2019-04-19T13:05:12.313Z,57.73
2019-04-19T13:06:13.459Z,58.70
2019-04-19T13:07:13.075Z,59.08
2019-04-19T13:08:12.492Z,60.30
2019-04-19T13:09:12.966Z,61.00
2019-04-19T13:10:13.153Z,58.30
2019-04-19T13:11:12.715Z,57.82
2019-04-19T13:12:12.902Z,57.12
2019-04-19T13:13:13.903Z,59.81
2019-04-19T13:14:12.833Z,61.35
2019-04-19T13:15:13.681Z,59.27
2019-04-19T13:16:12.974Z,58.04
2019-04-19T13:17:13.023Z,56.79
2019-04-19T13:18:14.156Z,56.91
2019-04-19T13:19:14.141Z,56.91
2019-04-19T13:20:19.161Z,55.46
2019-04-19T13:21:13.860Z,55.56